sensor_id;sensor_type;location;lat;lon;timestamp;pressure;altitude;pressure_sealevel;temperature;humidity
21096;BME280;10706;49.036;12.112;2023-11-19T00:02:23;97826.88;;;5.53;95.23
21096;BME280;10706;49.036;12.112;2023-11-19T00:04:49;97821.81;;;5.65;94.83
21096;BME280;10706;49.036;12.112;2023-11-19T00:07:15;97810.78;;;5.41;94.51
21096;BME280;10706;49.036;12.112;2023-11-19T00:09:41;97800.53;;;5.25;96.00
21096;BME280;10706;49.036;12.112;2023-11-19T00:12:07;97802.19;;;5.26;96.19
21096;BME280;10706;49.036;12.112;2023-11-19T00:14:34;97790.28;;;5.09;96.79
21096;BME280;10706;49.036;12.112;2023-11-19T00:17:00;97794.22;;;5.19;96.46
21096;BME280;10706;49.036;12.112;2023-11-19T00:19:26;97788.75;;;5.34;95.92
21096;BME280;10706;49.036;12.112;2023-11-19T00:21:52;97789.06;;;5.04;97.34
21096;BME280;10706;49.036;12.112;2023-11-19T00:24:18;97779.78;;;5.22;97.50
21096;BME280;10706;49.036;12.112;2023-11-19T00:26:44;97780.44;;;5.51;95.84
21096;BME280;10706;49.036;12.112;2023-11-19T00:29:10;97775.50;;;5.34;95.58
21096;BME280;10706;49.036;12.112;2023-11-19T00:31:36;97769.81;;;5.31;96.08
21096;BME280;10706;49.036;12.112;2023-11-19T00:34:02;97769.53;;;5.05;97.49
21096;BME280;10706;49.036;12.112;2023-11-19T00:36:28;97763.91;;;5.35;96.44
21096;BME280;10706;49.036;12.112;2023-11-19T00:38:55;97766.75;;;5.27;96.26
21096;BME280;10706;49.036;12.112;2023-11-19T00:41:20;97759.38;;;5.09;96.38
21096;BME280;10706;49.036;12.112;2023-11-19T00:43:47;97755.69;;;5.10;96.80
21096;BME280;10706;49.036;12.112;2023-11-19T00:46:13;97754.53;;;5.26;96.32
21096;BME280;10706;49.036;12.112;2023-11-19T00:48:39;97750.03;;;5.13;97.12
21096;BME280;10706;49.036;12.112;2023-11-19T00:51:08;97751.41;;;4.96;97.81
21096;BME280;10706;49.036;12.112;2023-11-19T00:53:37;97753.63;;;4.99;97.23
21096;BME280;10706;49.036;12.112;2023-11-19T00:56:02;97750.00;;;5.06;96.96
21096;BME280;10706;49.036;12.112;2023-11-19T00:58:28;97745.34;;;5.15;97.44
21096;BME280;10706;49.036;12.112;2023-11-19T01:00:55;97745.31;;;5.02;98.08
21096;BME280;10706;49.036;12.112;2023-11-19T01:03:22;97734.34;;;5.12;96.94
21096;BME280;10706;49.036;12.112;2023-11-19T01:05:48;97731.28;;;5.01;97.28
21096;BME280;10706;49.036;12.112;2023-11-19T01:08:14;97733.91;;;5.01;97.25
21096;BME280;10706;49.036;12.112;2023-11-19T01:10:41;97732.72;;;5.11;97.27
21096;BME280;10706;49.036;12.112;2023-11-19T01:13:08;97737.38;;;5.02;97.83
21096;BME280;10706;49.036;12.112;2023-11-19T01:15:34;97733.69;;;5.03;97.90
21096;BME280;10706;49.036;12.112;2023-11-19T01:18:00;97730.47;;;5.14;97.01
21096;BME280;10706;49.036;12.112;2023-11-19T01:20:27;97720.06;;;5.06;97.34
21096;BME280;10706;49.036;12.112;2023-11-19T01:22:53;97725.41;;;5.26;97.51
21096;BME280;10706;49.036;12.112;2023-11-19T01:25:19;97719.25;;;5.12;97.85
21096;BME280;10706;49.036;12.112;2023-11-19T01:27:45;97713.78;;;5.14;97.24
21096;BME280;10706;49.036;12.112;2023-11-19T01:30:11;97713.41;;;5.37;96.44
21096;BME280;10706;49.036;12.112;2023-11-19T01:32:40;97714.38;;;5.02;97.30
21096;BME280;10706;49.036;12.112;2023-11-19T01:35:07;97721.31;;;5.23;97.39
21096;BME280;10706;49.036;12.112;2023-11-19T01:37:34;97717.06;;;5.22;96.91
21096;BME280;10706;49.036;12.112;2023-11-19T01:40:03;97713.97;;;5.12;96.98
21096;BME280;10706;49.036;12.112;2023-11-19T01:42:40;97705.00;;;5.06;97.63
21096;BME280;10706;49.036;12.112;2023-11-19T01:45:07;97701.59;;;5.26;96.10
21096;BME280;10706;49.036;12.112;2023-11-19T01:47:35;97709.06;;;5.02;97.80
21096;BME280;10706;49.036;12.112;2023-11-19T01:50:02;97703.22;;;5.20;97.25
21096;BME280;10706;49.036;12.112;2023-11-19T01:52:32;97697.91;;;5.14;97.28
21096;BME280;10706;49.036;12.112;2023-11-19T01:55:00;97684.88;;;5.19;97.22
21096;BME280;10706;49.036;12.112;2023-11-19T01:57:25;97682.81;;;5.01;97.93
21096;BME280;10706;49.036;12.112;2023-11-19T01:59:52;97696.88;;;5.01;98.36
21096;BME280;10706;49.036;12.112;2023-11-19T02:02:19;97688.50;;;4.98;98.16
21096;BME280;10706;49.036;12.112;2023-11-19T02:04:49;97696.44;;;5.04;97.41
21096;BME280;10706;49.036;12.112;2023-11-19T02:07:15;97693.63;;;5.06;97.69
21096;BME280;10706;49.036;12.112;2023-11-19T02:09:43;97686.06;;;4.96;98.54
21096;BME280;10706;49.036;12.112;2023-11-19T02:12:10;97680.00;;;5.09;97.46
21096;BME280;10706;49.036;12.112;2023-11-19T02:14:38;97677.97;;;5.24;97.27
21096;BME280;10706;49.036;12.112;2023-11-19T02:17:05;97677.56;;;5.34;96.74
21096;BME280;10706;49.036;12.112;2023-11-19T02:19:30;97676.94;;;5.32;97.05
21096;BME280;10706;49.036;12.112;2023-11-19T02:21:56;97664.75;;;5.31;96.51
21096;BME280;10706;49.036;12.112;2023-11-19T02:24:22;97665.94;;;5.29;96.30
21096;BME280;10706;49.036;12.112;2023-11-19T02:27:10;97659.22;;;5.13;97.66
21096;BME280;10706;49.036;12.112;2023-11-19T02:29:40;97660.47;;;5.30;97.36
21096;BME280;10706;49.036;12.112;2023-11-19T02:32:06;97658.00;;;5.15;97.90
21096;BME280;10706;49.036;12.112;2023-11-19T02:34:34;97636.41;;;5.12;97.06
21096;BME280;10706;49.036;12.112;2023-11-19T02:37:01;97634.78;;;5.04;97.17
21096;BME280;10706;49.036;12.112;2023-11-19T02:39:27;97621.78;;;5.09;96.94
21096;BME280;10706;49.036;12.112;2023-11-19T02:41:53;97614.41;;;5.04;97.76
21096;BME280;10706;49.036;12.112;2023-11-19T02:44:20;97605.88;;;5.02;97.47
21096;BME280;10706;49.036;12.112;2023-11-19T02:46:46;97595.31;;;4.96;97.96
21096;BME280;10706;49.036;12.112;2023-11-19T02:49:14;97594.47;;;5.02;97.71
21096;BME280;10706;49.036;12.112;2023-11-19T02:51:40;97594.88;;;5.12;96.34
21096;BME280;10706;49.036;12.112;2023-11-19T02:54:06;97597.31;;;5.14;97.51
21096;BME280;10706;49.036;12.112;2023-11-19T02:56:32;97599.16;;;5.06;97.58
21096;BME280;10706;49.036;12.112;2023-11-19T02:59:02;97596.50;;;5.06;97.40
21096;BME280;10706;49.036;12.112;2023-11-19T03:01:40;97601.19;;;5.18;96.26
21096;BME280;10706;49.036;12.112;2023-11-19T03:04:09;97602.22;;;5.17;97.40
21096;BME280;10706;49.036;12.112;2023-11-19T03:06:37;97595.50;;;5.14;97.38
21096;BME280;10706;49.036;12.112;2023-11-19T03:09:03;97603.44;;;5.41;96.13
21096;BME280;10706;49.036;12.112;2023-11-19T03:11:35;97597.75;;;5.37;96.43
21096;BME280;10706;49.036;12.112;2023-11-19T03:14:01;97605.25;;;5.47;95.42
21096;BME280;10706;49.036;12.112;2023-11-19T03:16:29;97615.22;;;5.58;95.17
21096;BME280;10706;49.036;12.112;2023-11-19T03:18:54;97604.41;;;5.73;94.75
21096;BME280;10706;49.036;12.112;2023-11-19T03:21:30;97604.41;;;5.67;94.33
21096;BME280;10706;49.036;12.112;2023-11-19T03:23:57;97598.56;;;5.44;95.51
21096;BME280;10706;49.036;12.112;2023-11-19T03:26:28;97600.59;;;5.36;95.45
21096;BME280;10706;49.036;12.112;2023-11-19T03:28:55;97598.31;;;5.46;95.47
21096;BME280;10706;49.036;12.112;2023-11-19T03:31:22;97596.09;;;5.43;94.75
21096;BME280;10706;49.036;12.112;2023-11-19T03:33:48;97586.31;;;5.43;95.27
21096;BME280;10706;49.036;12.112;2023-11-19T03:36:14;97581.44;;;5.00;96.38
21096;BME280;10706;49.036;12.112;2023-11-19T03:38:39;97580.84;;;5.25;96.31
21096;BME280;10706;49.036;12.112;2023-11-19T03:41:14;97574.94;;;5.30;96.03
21096;BME280;10706;49.036;12.112;2023-11-19T03:43:41;97574.53;;;5.19;95.37
21096;BME280;10706;49.036;12.112;2023-11-19T03:46:21;97569.88;;;5.01;96.80
21096;BME280;10706;49.036;12.112;2023-11-19T03:48:49;97573.50;;;5.14;96.34
21096;BME280;10706;49.036;12.112;2023-11-19T03:51:15;97569.84;;;4.95;96.75
21096;BME280;10706;49.036;12.112;2023-11-19T03:53:42;97579.38;;;4.69;97.32
21096;BME280;10706;49.036;12.112;2023-11-19T03:56:09;97574.72;;;4.78;98.25
21096;BME280;10706;49.036;12.112;2023-11-19T03:58:35;97576.38;;;4.79;97.81
21096;BME280;10706;49.036;12.112;2023-11-19T04:01:02;97572.09;;;4.98;96.86
21096;BME280;10706;49.036;12.112;2023-11-19T04:03:28;97574.72;;;4.71;96.67
21096;BME280;10706;49.036;12.112;2023-11-19T04:05:54;97575.56;;;5.05;96.27
21096;BME280;10706;49.036;12.112;2023-11-19T04:08:20;97569.66;;;4.96;96.79
21096;BME280;10706;49.036;12.112;2023-11-19T04:10:46;97581.66;;;4.79;96.83
21096;BME280;10706;49.036;12.112;2023-11-19T04:13:12;97582.44;;;4.86;97.37
21096;BME280;10706;49.036;12.112;2023-11-19T04:15:38;97577.97;;;4.93;97.12
21096;BME280;10706;49.036;12.112;2023-11-19T04:18:04;97577.97;;;4.93;96.93
21096;BME280;10706;49.036;12.112;2023-11-19T04:20:29;97575.34;;;5.00;95.52
21096;BME280;10706;49.036;12.112;2023-11-19T04:22:57;97570.66;;;4.82;96.35
21096;BME280;10706;49.036;12.112;2023-11-19T04:25:23;97564.97;;;4.85;96.59
21096;BME280;10706;49.036;12.112;2023-11-19T04:27:51;97568.41;;;4.65;96.47
21096;BME280;10706;49.036;12.112;2023-11-19T04:30:18;97557.41;;;4.68;96.69
21096;BME280;10706;49.036;12.112;2023-11-19T04:32:44;97547.03;;;4.80;96.85
21096;BME280;10706;49.036;12.112;2023-11-19T04:35:10;97549.31;;;4.90;96.63
21096;BME280;10706;49.036;12.112;2023-11-19T04:37:37;97553.56;;;5.04;95.41
21096;BME280;10706;49.036;12.112;2023-11-19T04:40:03;97545.22;;;4.87;96.52
21096;BME280;10706;49.036;12.112;2023-11-19T04:42:29;97527.94;;;4.98;95.15
21096;BME280;10706;49.036;12.112;2023-11-19T04:44:55;97534.63;;;4.61;97.95
21096;BME280;10706;49.036;12.112;2023-11-19T04:47:21;97525.69;;;4.68;97.20
21096;BME280;10706;49.036;12.112;2023-11-19T04:49:47;97507.78;;;4.57;97.96
21096;BME280;10706;49.036;12.112;2023-11-19T04:52:14;97493.72;;;4.50;96.93
21096;BME280;10706;49.036;12.112;2023-11-19T04:54:43;97479.94;;;4.55;97.63
21096;BME280;10706;49.036;12.112;2023-11-19T04:57:09;97473.41;;;4.57;97.76
21096;BME280;10706;49.036;12.112;2023-11-19T04:59:39;97441.69;;;4.31;99.03
21096;BME280;10706;49.036;12.112;2023-11-19T05:02:05;97449.59;;;4.37;98.54
21096;BME280;10706;49.036;12.112;2023-11-19T05:04:31;97470.78;;;4.51;97.95
21096;BME280;10706;49.036;12.112;2023-11-19T05:06:57;97480.13;;;4.80;97.27
21096;BME280;10706;49.036;12.112;2023-11-19T05:09:23;97485.81;;;4.50;98.16
21096;BME280;10706;49.036;12.112;2023-11-19T05:11:49;97481.94;;;4.46;98.17
21096;BME280;10706;49.036;12.112;2023-11-19T05:14:15;97488.88;;;4.74;97.81
21096;BME280;10706;49.036;12.112;2023-11-19T05:16:41;97521.00;;;4.51;97.99
21096;BME280;10706;49.036;12.112;2023-11-19T05:19:08;97514.09;;;4.76;96.56
21096;BME280;10706;49.036;12.112;2023-11-19T05:21:35;97512.28;;;4.90;95.60
21096;BME280;10706;49.036;12.112;2023-11-19T05:24:02;97516.31;;;4.46;98.51
21096;BME280;10706;49.036;12.112;2023-11-19T05:26:31;97525.28;;;4.72;97.29
21096;BME280;10706;49.036;12.112;2023-11-19T05:28:57;97533.81;;;4.67;97.05
21096;BME280;10706;49.036;12.112;2023-11-19T05:31:22;97539.34;;;4.65;97.35
21096;BME280;10706;49.036;12.112;2023-11-19T05:33:48;97527.91;;;4.92;96.74
21096;BME280;10706;49.036;12.112;2023-11-19T05:36:14;97518.38;;;4.91;96.51
21096;BME280;10706;49.036;12.112;2023-11-19T05:38:40;97521.81;;;4.78;96.96
21096;BME280;10706;49.036;12.112;2023-11-19T05:41:06;97532.78;;;4.61;98.14
21096;BME280;10706;49.036;12.112;2023-11-19T05:43:32;97539.53;;;4.84;97.31
21096;BME280;10706;49.036;12.112;2023-11-19T05:45:58;97522.22;;;4.81;97.18
21096;BME280;10706;49.036;12.112;2023-11-19T05:48:26;97526.50;;;4.76;97.51
21096;BME280;10706;49.036;12.112;2023-11-19T05:50:52;97529.16;;;4.62;98.15
21096;BME280;10706;49.036;12.112;2023-11-19T05:53:19;97516.31;;;4.73;97.86
21096;BME280;10706;49.036;12.112;2023-11-19T05:55:45;97511.84;;;4.93;96.11
21096;BME280;10706;49.036;12.112;2023-11-19T05:58:26;97521.22;;;4.89;96.53
21096;BME280;10706;49.036;12.112;2023-11-19T06:00:55;97513.28;;;4.96;95.84
21096;BME280;10706;49.036;12.112;2023-11-19T06:03:21;97507.78;;;4.84;96.70
21096;BME280;10706;49.036;12.112;2023-11-19T06:05:48;97503.72;;;4.88;96.34
21096;BME280;10706;49.036;12.112;2023-11-19T06:08:14;97510.63;;;4.89;96.83
21096;BME280;10706;49.036;12.112;2023-11-19T06:10:41;97500.84;;;4.90;96.14
21096;BME280;10706;49.036;12.112;2023-11-19T06:13:07;97504.94;;;4.92;96.67
21096;BME280;10706;49.036;12.112;2023-11-19T06:15:36;97502.28;;;4.99;95.51
21096;BME280;10706;49.036;12.112;2023-11-19T06:18:02;97505.97;;;4.71;97.40
21096;BME280;10706;49.036;12.112;2023-11-19T06:20:38;97504.13;;;4.72;97.38
21096;BME280;10706;49.036;12.112;2023-11-19T06:23:04;97500.06;;;4.76;97.08
21096;BME280;10706;49.036;12.112;2023-11-19T06:25:29;97494.16;;;4.94;96.42
21096;BME280;10706;49.036;12.112;2023-11-19T06:27:55;97488.69;;;4.75;97.64
21096;BME280;10706;49.036;12.112;2023-11-19T06:30:23;97488.28;;;4.72;96.76
21096;BME280;10706;49.036;12.112;2023-11-19T06:32:48;97492.53;;;4.93;96.96
21096;BME280;10706;49.036;12.112;2023-11-19T06:35:14;97497.19;;;4.84;97.20
21096;BME280;10706;49.036;12.112;2023-11-19T06:37:40;97499.25;;;4.75;97.77
21096;BME280;10706;49.036;12.112;2023-11-19T06:40:07;97508.38;;;4.86;96.85
21096;BME280;10706;49.036;12.112;2023-11-19T06:42:35;97507.16;;;4.82;97.38
21096;BME280;10706;49.036;12.112;2023-11-19T06:45:02;97507.16;;;4.68;97.32
21096;BME280;10706;49.036;12.112;2023-11-19T06:47:28;97512.06;;;4.98;97.14
21096;BME280;10706;49.036;12.112;2023-11-19T06:49:55;97504.34;;;4.77;96.77
21096;BME280;10706;49.036;12.112;2023-11-19T06:52:24;97498.63;;;4.80;96.97
21096;BME280;10706;49.036;12.112;2023-11-19T06:54:51;97499.06;;;4.90;96.66
21096;BME280;10706;49.036;12.112;2023-11-19T06:57:18;97492.94;;;4.70;97.18
21096;BME280;10706;49.036;12.112;2023-11-19T06:59:44;97488.25;;;4.78;97.13
21096;BME280;10706;49.036;12.112;2023-11-19T07:02:09;97491.72;;;4.85;96.67
21096;BME280;10706;49.036;12.112;2023-11-19T07:04:36;97487.47;;;4.71;97.29
21096;BME280;10706;49.036;12.112;2023-11-19T07:07:01;97493.53;;;4.65;97.31
21096;BME280;10706;49.036;12.112;2023-11-19T07:09:27;97495.78;;;4.68;97.21
21096;BME280;10706;49.036;12.112;2023-11-19T07:11:54;97493.16;;;4.68;98.11
21096;BME280;10706;49.036;12.112;2023-11-19T07:14:19;97485.22;;;4.55;97.66
21096;BME280;10706;49.036;12.112;2023-11-19T07:16:45;97491.31;;;4.75;97.51
21096;BME280;10706;49.036;12.112;2023-11-19T07:19:15;97500.06;;;4.76;97.11
21096;BME280;10706;49.036;12.112;2023-11-19T07:21:42;97493.78;;;4.77;97.59
21096;BME280;10706;49.036;12.112;2023-11-19T07:24:10;97495.78;;;4.88;97.13
21096;BME280;10706;49.036;12.112;2023-11-19T07:26:45;97502.72;;;4.82;97.22
21096;BME280;10706;49.036;12.112;2023-11-19T07:29:13;97510.22;;;4.99;96.69
21096;BME280;10706;49.036;12.112;2023-11-19T07:31:39;97503.28;;;5.04;97.30
21096;BME280;10706;49.036;12.112;2023-11-19T07:34:05;97514.50;;;4.73;97.85
21096;BME280;10706;49.036;12.112;2023-11-19T07:36:32;97513.28;;;4.89;96.96
21096;BME280;10706;49.036;12.112;2023-11-19T07:38:58;97518.78;;;4.94;97.28
21096;BME280;10706;49.036;12.112;2023-11-19T07:41:24;97515.94;;;4.96;96.70
21096;BME280;10706;49.036;12.112;2023-11-19T07:43:51;97504.75;;;4.94;97.48
21096;BME280;10706;49.036;12.112;2023-11-19T07:46:17;97505.75;;;4.73;97.97
21096;BME280;10706;49.036;12.112;2023-11-19T07:48:45;97513.50;;;4.94;97.65
21096;BME280;10706;49.036;12.112;2023-11-19T07:51:13;97506.97;;;4.97;97.85
21096;BME280;10706;49.036;12.112;2023-11-19T07:53:40;97508.41;;;4.79;97.71
21096;BME280;10706;49.036;12.112;2023-11-19T07:56:08;97512.06;;;4.72;98.72
21096;BME280;10706;49.036;12.112;2023-11-19T07:58:34;97504.97;;;4.65;98.64
21096;BME280;10706;49.036;12.112;2023-11-19T08:01:00;97512.25;;;4.83;98.76
21096;BME280;10706;49.036;12.112;2023-11-19T08:03:28;97512.06;;;4.85;98.40
21096;BME280;10706;49.036;12.112;2023-11-19T08:05:57;97509.22;;;4.73;98.62
21096;BME280;10706;49.036;12.112;2023-11-19T08:08:23;97502.91;;;4.74;97.73
21096;BME280;10706;49.036;12.112;2023-11-19T08:10:49;97509.41;;;4.78;98.43
21096;BME280;10706;49.036;12.112;2023-11-19T08:13:18;97501.28;;;4.86;98.70
21096;BME280;10706;49.036;12.112;2023-11-19T08:15:43;97512.88;;;4.79;98.98
21096;BME280;10706;49.036;12.112;2023-11-19T08:18:09;97512.47;;;4.75;98.60
21096;BME280;10706;49.036;12.112;2023-11-19T08:20:35;97509.41;;;4.92;98.75
21096;BME280;10706;49.036;12.112;2023-11-19T08:23:03;97513.50;;;4.81;98.31
21096;BME280;10706;49.036;12.112;2023-11-19T08:25:32;97505.13;;;4.84;98.32
21096;BME280;10706;49.036;12.112;2023-11-19T08:27:59;97500.44;;;5.13;98.23
21096;BME280;10706;49.036;12.112;2023-11-19T08:30:26;97496.97;;;4.99;97.88
21096;BME280;10706;49.036;12.112;2023-11-19T08:32:52;97496.81;;;4.94;98.78
21096;BME280;10706;49.036;12.112;2023-11-19T08:35:18;97505.75;;;4.99;98.40
21096;BME280;10706;49.036;12.112;2023-11-19T08:37:44;97502.28;;;4.85;98.61
21096;BME280;10706;49.036;12.112;2023-11-19T08:40:12;97508.00;;;4.82;99.00
21096;BME280;10706;49.036;12.112;2023-11-19T08:42:40;97511.66;;;4.88;99.07
21096;BME280;10706;49.036;12.112;2023-11-19T08:45:07;97503.91;;;5.00;98.73
21096;BME280;10706;49.036;12.112;2023-11-19T08:47:36;97505.72;;;5.06;98.58
21096;BME280;10706;49.036;12.112;2023-11-19T08:50:02;97507.38;;;4.87;99.42
21096;BME280;10706;49.036;12.112;2023-11-19T08:52:30;97504.72;;;5.14;99.00
21096;BME280;10706;49.036;12.112;2023-11-19T08:54:56;97500.81;;;5.23;97.79
21096;BME280;10706;49.036;12.112;2023-11-19T08:57:22;97505.69;;;5.39;97.60
21096;BME280;10706;49.036;12.112;2023-11-19T08:59:48;97510.53;;;5.49;97.39
21096;BME280;10706;49.036;12.112;2023-11-19T09:02:14;97502.09;;;5.72;96.81
21096;BME280;10706;49.036;12.112;2023-11-19T09:04:40;97503.75;;;5.73;96.69
21096;BME280;10706;49.036;12.112;2023-11-19T09:07:06;97506.25;;;5.61;96.80
21096;BME280;10706;49.036;12.112;2023-11-19T09:09:35;97508.63;;;5.76;96.73
21096;BME280;10706;49.036;12.112;2023-11-19T09:12:02;97514.38;;;5.60;96.24
21096;BME280;10706;49.036;12.112;2023-11-19T09:14:31;97504.13;;;5.77;96.83
21096;BME280;10706;49.036;12.112;2023-11-19T09:16:57;97512.84;;;5.97;95.75
21096;BME280;10706;49.036;12.112;2023-11-19T09:19:24;97505.25;;;5.56;96.60
21096;BME280;10706;49.036;12.112;2023-11-19T09:21:52;97495.59;;;5.68;97.41
21096;BME280;10706;49.036;12.112;2023-11-19T09:24:19;97502.88;;;5.79;96.88
21096;BME280;10706;49.036;12.112;2023-11-19T09:26:45;97506.53;;;5.92;96.48
21096;BME280;10706;49.036;12.112;2023-11-19T09:29:11;97504.47;;;5.94;95.99
21096;BME280;10706;49.036;12.112;2023-11-19T09:31:40;97502.47;;;5.82;96.37
21096;BME280;10706;49.036;12.112;2023-11-19T09:34:06;97504.94;;;5.84;96.59
21096;BME280;10706;49.036;12.112;2023-11-19T09:36:31;97501.00;;;6.00;96.91
21096;BME280;10706;49.036;12.112;2023-11-19T09:38:57;97494.44;;;6.09;96.53
21096;BME280;10706;49.036;12.112;2023-11-19T09:41:25;97496.88;;;6.11;96.51
21096;BME280;10706;49.036;12.112;2023-11-19T09:43:53;97494.03;;;6.12;97.07
21096;BME280;10706;49.036;12.112;2023-11-19T09:46:19;97492.22;;;6.38;96.97
21096;BME280;10706;49.036;12.112;2023-11-19T09:48:46;97489.91;;;6.48;96.66
21096;BME280;10706;49.036;12.112;2023-11-19T09:51:14;97486.47;;;6.73;96.43
21096;BME280;10706;49.036;12.112;2023-11-19T09:53:40;97484.75;;;6.85;96.06
21096;BME280;10706;49.036;12.112;2023-11-19T09:56:06;97481.84;;;7.12;95.40
21096;BME280;10706;49.036;12.112;2023-11-19T09:58:34;97493.44;;;7.36;95.12
21096;BME280;10706;49.036;12.112;2023-11-19T10:01:00;97467.69;;;7.55;94.19
21096;BME280;10706;49.036;12.112;2023-11-19T10:03:34;97487.47;;;7.77;94.70
21096;BME280;10706;49.036;12.112;2023-11-19T10:06:10;97484.69;;;7.84;94.54
21096;BME280;10706;49.036;12.112;2023-11-19T10:08:40;97486.56;;;7.84;93.41
21096;BME280;10706;49.036;12.112;2023-11-19T10:11:07;97484.78;;;7.96;92.98
21096;BME280;10706;49.036;12.112;2023-11-19T10:13:37;97484.59;;;7.61;94.17
21096;BME280;10706;49.036;12.112;2023-11-19T10:16:17;97481.56;;;7.57;94.93
21096;BME280;10706;49.036;12.112;2023-11-19T10:18:47;97474.75;;;7.61;93.97
21096;BME280;10706;49.036;12.112;2023-11-19T10:21:14;97469.88;;;7.76;93.84
21096;BME280;10706;49.036;12.112;2023-11-19T10:23:54;97462.69;;;7.77;94.87
21096;BME280;10706;49.036;12.112;2023-11-19T10:26:22;97467.59;;;7.80;93.60
21096;BME280;10706;49.036;12.112;2023-11-19T10:28:49;97454.22;;;8.17;92.28
21096;BME280;10706;49.036;12.112;2023-11-19T10:31:16;97448.81;;;7.93;92.64
21096;BME280;10706;49.036;12.112;2023-11-19T10:33:43;97459.78;;;7.97;92.52
21096;BME280;10706;49.036;12.112;2023-11-19T10:36:11;97447.97;;;8.11;93.67
21096;BME280;10706;49.036;12.112;2023-11-19T10:38:38;97455.47;;;8.14;92.82
21096;BME280;10706;49.036;12.112;2023-11-19T10:41:05;97461.19;;;8.30;90.83
21096;BME280;10706;49.036;12.112;2023-11-19T10:43:41;97450.75;;;8.16;92.63
21096;BME280;10706;49.036;12.112;2023-11-19T10:46:11;97451.84;;;8.09;91.70
21096;BME280;10706;49.036;12.112;2023-11-19T10:48:38;97440.63;;;8.07;92.57
21096;BME280;10706;49.036;12.112;2023-11-19T10:51:07;97438.09;;;8.00;92.93
21096;BME280;10706;49.036;12.112;2023-11-19T10:53:37;97429.75;;;7.96;92.94
21096;BME280;10706;49.036;12.112;2023-11-19T10:56:10;97424.56;;;8.02;92.27
21096;BME280;10706;49.036;12.112;2023-11-19T10:58:37;97432.63;;;7.95;94.84
21096;BME280;10706;49.036;12.112;2023-11-19T11:01:19;97443.06;;;8.08;93.98
21096;BME280;10706;49.036;12.112;2023-11-19T11:03:46;97443.59;;;8.29;92.55
21096;BME280;10706;49.036;12.112;2023-11-19T11:06:13;97434.81;;;8.28;93.57
21096;BME280;10706;49.036;12.112;2023-11-19T11:08:40;97436.41;;;8.17;93.53
21096;BME280;10706;49.036;12.112;2023-11-19T11:11:08;97420.81;;;8.33;93.40
21096;BME280;10706;49.036;12.112;2023-11-19T11:13:37;97423.78;;;8.43;92.98
21096;BME280;10706;49.036;12.112;2023-11-19T11:16:06;97424.84;;;8.54;93.46
21096;BME280;10706;49.036;12.112;2023-11-19T11:18:33;97423.69;;;8.62;92.06
21096;BME280;10706;49.036;12.112;2023-11-19T11:21:09;97436.06;;;8.26;93.03
21096;BME280;10706;49.036;12.112;2023-11-19T11:27:03;97427.72;;;8.52;92.09
21096;BME280;10706;49.036;12.112;2023-11-19T11:29:54;97427.59;;;8.59;91.94
21096;BME280;10706;49.036;12.112;2023-11-19T11:32:39;97427.25;;;8.55;92.75
21096;BME280;10706;49.036;12.112;2023-11-19T11:38:07;97432.72;;;8.84;93.16
21096;BME280;10706;49.036;12.112;2023-11-19T11:40:34;97425.91;;;8.88;92.67
21096;BME280;10706;49.036;12.112;2023-11-19T11:43:00;97420.78;;;9.10;93.94
21096;BME280;10706;49.036;12.112;2023-11-19T11:45:39;97418.38;;;9.49;93.60
21096;BME280;10706;49.036;12.112;2023-11-19T11:48:15;97415.06;;;9.42;94.25
21096;BME280;10706;49.036;12.112;2023-11-19T11:50:53;97406.97;;;9.95;92.23
21096;BME280;10706;49.036;12.112;2023-11-19T11:53:21;97401.03;;;10.04;93.26
21096;BME280;10706;49.036;12.112;2023-11-19T11:58:22;97410.28;;;10.14;92.74
21096;BME280;10706;49.036;12.112;2023-11-19T12:00:51;97411.81;;;10.26;91.86
21096;BME280;10706;49.036;12.112;2023-11-19T12:03:21;97390.75;;;10.42;91.69
21096;BME280;10706;49.036;12.112;2023-11-19T12:05:48;97392.69;;;10.46;90.95
21096;BME280;10706;49.036;12.112;2023-11-19T12:08:18;97397.03;;;10.69;89.90
21096;BME280;10706;49.036;12.112;2023-11-19T12:10:52;97390.19;;;10.57;91.71
21096;BME280;10706;49.036;12.112;2023-11-19T12:13:20;97399.97;;;10.85;91.40
21096;BME280;10706;49.036;12.112;2023-11-19T12:18:28;97394.44;;;10.75;89.94
21096;BME280;10706;49.036;12.112;2023-11-19T12:21:00;97379.72;;;11.11;91.04
21096;BME280;10706;49.036;12.112;2023-11-19T12:23:29;97370.81;;;11.22;89.82
21096;BME280;10706;49.036;12.112;2023-11-19T12:25:56;97373.53;;;11.27;89.39
21096;BME280;10706;49.036;12.112;2023-11-19T12:28:23;97367.19;;;11.34;88.88
21096;BME280;10706;49.036;12.112;2023-11-19T12:30:52;97359.09;;;11.51;88.82
21096;BME280;10706;49.036;12.112;2023-11-19T12:33:19;97355.63;;;11.99;88.86
21096;BME280;10706;49.036;12.112;2023-11-19T12:35:47;97356.50;;;12.10;87.90
21096;BME280;10706;49.036;12.112;2023-11-19T12:40:46;97357.47;;;12.31;87.66
21096;BME280;10706;49.036;12.112;2023-11-19T12:43:21;97353.31;;;12.45;86.28
21096;BME280;10706;49.036;12.112;2023-11-19T12:45:50;97349.19;;;13.18;83.51
21096;BME280;10706;49.036;12.112;2023-11-19T12:48:16;97349.31;;;12.91;83.74
21096;BME280;10706;49.036;12.112;2023-11-19T12:50:55;97348.00;;;12.98;83.41
21096;BME280;10706;49.036;12.112;2023-11-19T12:53:24;97341.50;;;12.41;84.49
21096;BME280;10706;49.036;12.112;2023-11-19T12:55:52;97340.34;;;12.32;84.62
21096;BME280;10706;49.036;12.112;2023-11-19T12:58:35;97344.19;;;12.09;85.69
21096;BME280;10706;49.036;12.112;2023-11-19T13:01:07;97345.38;;;12.61;84.98
21096;BME280;10706;49.036;12.112;2023-11-19T13:03:36;97335.34;;;12.41;84.84
21096;BME280;10706;49.036;12.112;2023-11-19T13:06:09;97327.91;;;12.53;84.23
21096;BME280;10706;49.036;12.112;2023-11-19T13:08:48;97320.59;;;12.38;84.21
21096;BME280;10706;49.036;12.112;2023-11-19T13:11:34;97323.09;;;12.13;85.95
21096;BME280;10706;49.036;12.112;2023-11-19T13:14:03;97324.59;;;11.76;87.51
21096;BME280;10706;49.036;12.112;2023-11-19T13:16:30;97329.00;;;11.60;88.05
21096;BME280;10706;49.036;12.112;2023-11-19T13:18:57;97321.69;;;11.51;88.87